Gaylord, MI

10:36 AM EDT on October 25, 2014 (GMT -0400)
Castlewood Drive | Change Station
CLOSE
Current Station
Personal Weather Station
Location: Gaylord, MI
Elevation: 1315 ft
Nearby Weather Stations

Elev 1315 ft 44.99 °N, 84.66 °W | Updated 13 seconds ago

Partly Cloudy
Partly Cloudy
53.6 °F
Feels Like 53.6 °F
N
1.0
Wind Variable Wind from WNW
Gusts 1.0 mph

Today
High -- | Low -- °F
--% Chance of Precip.
Yesterday
High -- | Low -- °F
Precip. -- in
8:07 AM 6:37 PM
Waxing Crescent, 3% visible
Pressure 29.73 in
Visibility 9.0 miles
Clouds Few 1200 ft
Dew Point 49 °F
Humidity 84%
Rainfall 0.00 in
Snow Depth Not available.
UV 0.0 out of 12
Pollen 1.80 out of 12
Ozone Good
PM2.5 Good
Flu Activity Sporadic
METAR KGLR 251353Z AUTO 27013G20KT 9SM FEW012 12/09 A2971 RMK AO2 SLP066 T01170089

More Conditions Fewer Conditions

Pressure 29.73 in
Visibility 9.0 miles
Clouds Few 1200 ft
Dew Point 49 °F
Humidity 84%
Rainfall 0.00 in
Snow Depth Not available.
UV 0.0 out of 12
Pollen 1.80 out of 12
Ozone Good
PM2.5 Good
Flu Activity Sporadic
METAR KGLR 251353Z AUTO 27013G20KT 9SM FEW012 12/09 A2971 RMK AO2 SLP066 T01170089

More Conditions Fewer Conditions

Nowcast | as of 10:00 am EDT on October 25, 2014

At 11 am...mostly clear. Temperature 53. West winds 15 mph. At 1 PM...mostly clear. Temperature 55. West winds 17 mph with gusts to 30 mph. At 3 PM...mostly clear. Temperature 55. West winds 18 mph with gusts to 30 mph. At 5 PM...mostly clear. Temperature 54. West winds 18 mph with gusts to 30 mph.

×

10-Day Weather Forecast

Almanac

Astronomy

Oct. 25, 2014 Rise Set
Actual Time 8:07 AM EDT 6:37 PM EDT
Civil Twilight 7:37 AM EDT 7:07 PM EDT
Nautical Twilight 7:03 AM EDT 7:41 PM EDT
Astronomical Twilight 6:29 AM EDT 8:15 PM EDT
Moon 9:49 AM EDT 7:55 PM EDT
Length of Visible Light 11h 29m
Length of Day
10h 29m
Tomorrow will be 2m 55s shorter.
Waxing Crescent, 3% of the Moon is Illuminated
Today
Waxing Crescent
Oct 30
First Quarter
Nov 6
Full
Nov 14
Last Quarter
Nov 22
New

Today's Extremes

State Highs State Lows

Community

WunderPhotos

Upload Photos

1,764,852 photos uploaded!

Nearby

Air Quality

  Air Quality AQ Index Pollutant
Yesterday Good
PM2.5
Yesterday Good
OZONE
Current Good
PM2.5
Current Good
OZONE
Saturday Good
PM2.5
Sunday Good
PM2.5
Monday Good
PM2.5

Snow Depth

Station Depth Elevation
No new snow has been reported.

Earthquake Activity

City Distance Mag. Time & Date
No recent earthquake activity has been reported nearby.
Minimum magnitude displayed is 2.5.

Coastal Water Temperatures

Place Temperature
Mackinaw City, MI 53.1 °F
Port Inland, MI 51.1 °F

Nearby Weather Stations